No requiere especial atencion con respecto al clima.   -   No hay Alarmas

Nearby METAR Reports

 

LELL - Sabadell, Spain
Distance from station: E 19km
Actualización: 28/05/2022 12:30
Despejado
Despejado
 Viento del SO
Viento: SO 15 km/h
Temperatura: 29°C
Rocío: 13°C
Humedad: 37%
Barómetro: 1013 hPa
Resumen: Despejado
Visibility: greater than 10 km
2022/05/28 10:30 LELL 281030Z 23008KT 190V280 CAVOK 29/13 Q1013
LEBL - Barcelona Airpor, Spain
Distance from station: SSE 30km
Actualización: 28/05/2022 12:30
Despejado
Despejado
 Viento del SSO
Viento: SSO 17 km/h
Temperatura: 26°C
Rocío: 14°C
Humedad: 48%
Barómetro: 1012 hPa
Resumen: Despejado
Visibility: greater than 10 km
2022/05/28 10:30 LEBL 281030Z 21009KT CAVOK 26/14 Q1012 NOSIG
 
LERS - Reus (civ/Mil), Spain
Distance from station: SO 71km
Actualización: 28/05/2022 12:30
Despejado
Despejado
 Viento del S
Viento: S 13 km/h
Temperatura: 30°C
Rocío: 14°C
Humedad: 38%
Barómetro: 1013 hPa
Resumen: Despejado
Visibility: greater than 10 km
2022/05/28 10:30 LERS 281030Z 17007KT 100V240 CAVOK 30/14 Q1013
LEGE - Gerona/Costa Bra, Spain
Distance from station: ENE 86km
Actualización: 28/05/2022 12:30
Despejado
Despejado
 Viento del varies
Viento: varies 7 km/h
Temperatura: 27°C
Heat Index: 27°C
Rocío: 14°C
Humedad: 45%
Barómetro: 1012 hPa
Resumen: Despejado
Visibility: greater than 10 km
2022/05/28 10:30 LEGE 281030Z VRB04KT CAVOK 27/14 Q1012
 
LESU - Pirineus/La Seu, Spain
Distance from station: NNO 101km
Actualización: 28/05/2022 12:30
Few Clouds
Few Clouds
 Viento del varies
Viento: varies 6 km/h
Temperatura: 25°C
Rocío: 6°C
Humedad: 30%
Barómetro: 1016 hPa
Clouds: Few Clouds
Visibility: 10 km
Cloud details: Few Clouds 1829 m
2022/05/28 10:30 LESU 281030Z VRB03KT 9999 FEW060 25/06 Q1016
LEDA - Lleida/Alguaire, Spain
Distance from station: ONO 114km
Actualización: 28/05/2022 12:30
Despejado
Despejado
 Viento del SO
Viento: SO 17 km/h
Temperatura: 24°C
Rocío: 12°C
Humedad: 47%
Barómetro: 1015 hPa
Resumen: Despejado
Visibility: greater than 10 km
2022/05/28 10:30 LEDA 281030Z 22009KT 190V260 CAVOK 24/12 Q1015